createdAt,value
2019-05-07T00:02:25.323Z,23.32
2019-05-07T00:04:54.706Z,28.52
2019-05-07T00:07:23.913Z,21.17
2019-05-07T00:09:53.156Z,19.32
2019-05-07T00:12:23.028Z,21.70
2019-05-07T00:15:00.875Z,23.40
2019-05-07T00:17:23.411Z,28.70
2019-05-07T00:19:52.781Z,21.60
2019-05-07T00:22:22.773Z,25.60
2019-05-07T00:24:52.325Z,29.35
2019-05-07T00:27:22.624Z,22.42
2019-05-07T00:32:22.124Z,22.67
2019-05-07T00:34:55.677Z,21.48
2019-05-07T00:37:32.340Z,24.63
2019-05-07T00:40:19.426Z,24.90
2019-05-07T00:43:05.011Z,28.95
2019-05-07T00:45:35.885Z,20.92
2019-05-07T00:48:05.059Z,27.70
2019-05-07T00:50:35.870Z,27.35
2019-05-07T00:53:05.117Z,17.17
2019-05-07T00:58:42.943Z,22.90
2019-05-07T01:01:13.045Z,22.52
2019-05-07T01:03:42.549Z,23.77
2019-05-07T01:06:12.878Z,22.58
2019-05-07T01:08:43.055Z,24.70
2019-05-07T01:11:13.171Z,20.85
2019-05-07T01:13:43.351Z,28.42
2019-05-07T01:16:13.388Z,21.93
2019-05-07T01:18:42.716Z,23.20
2019-05-07T01:21:13.215Z,25.85
2019-05-07T01:26:12.501Z,21.48
2019-05-07T01:29:02.466Z,27.45
2019-05-07T01:31:33.486Z,25.90
2019-05-07T01:34:16.304Z,20.12
2019-05-07T01:36:45.582Z,25.57
2019-05-07T01:39:14.740Z,20.62
2019-05-07T01:41:44.702Z,21.90
2019-05-07T01:44:14.142Z,23.47
2019-05-07T01:46:43.358Z,25.35
2019-05-07T01:49:12.761Z,26.77
2019-05-07T01:54:33.475Z,27.55
2019-05-07T01:57:03.128Z,27.00
2019-05-07T01:59:32.459Z,29.80
2019-05-07T02:02:05.908Z,24.87
2019-05-07T02:04:39.167Z,27.75
2019-05-07T02:07:12.460Z,24.15
2019-05-07T02:09:49.277Z,25.90
2019-05-07T02:12:59.113Z,26.23
2019-05-07T02:18:01.979Z,24.02
2019-05-07T02:23:02.909Z,28.90
2019-05-07T02:25:33.024Z,30.50
2019-05-07T02:28:02.391Z,29.30
2019-05-07T02:30:34.750Z,27.98
2019-05-07T02:33:03.815Z,28.73
2019-05-07T02:35:33.652Z,25.70
2019-05-07T02:38:04.614Z,28.42
2019-05-07T02:40:53.600Z,29.25
2019-05-07T02:43:22.983Z,26.25
2019-05-07T02:45:56.632Z,28.25
2019-05-07T02:48:27.430Z,27.98
2019-05-07T02:51:03.890Z,26.23
2019-05-07T02:53:33.932Z,23.40
2019-05-07T02:56:04.527Z,30.68
2019-05-07T03:01:04.789Z,30.68
2019-05-07T03:03:33.832Z,26.23
2019-05-07T03:06:03.252Z,24.95
2019-05-07T03:08:33.335Z,26.73
2019-05-07T03:11:03.353Z,24.60
2019-05-07T03:13:33.765Z,29.60
2019-05-07T03:16:03.863Z,24.47
2019-05-07T03:18:33.689Z,26.07
2019-05-07T03:21:04.628Z,28.92
2019-05-07T03:23:53.897Z,26.10
2019-05-07T03:26:26.672Z,28.02
2019-05-07T03:28:57.503Z,26.85
2019-05-07T03:31:36.024Z,25.05
2019-05-07T03:34:16.688Z,26.75
2019-05-07T03:36:48.952Z,26.20
2019-05-07T03:39:18.527Z,24.40
2019-05-07T03:41:47.695Z,25.50
2019-05-07T03:44:34.649Z,27.13
2019-05-07T03:47:17.463Z,26.33
2019-05-07T03:49:46.881Z,29.65
2019-05-07T03:52:16.631Z,28.45
2019-05-07T03:54:45.873Z,34.20
2019-05-07T03:57:15.991Z,36.50
2019-05-07T03:59:45.353Z,32.33
2019-05-07T04:02:14.538Z,36.68
2019-05-07T04:04:43.707Z,30.88
2019-05-07T04:07:13.878Z,33.40
2019-05-07T04:09:43.922Z,37.45
2019-05-07T04:12:13.476Z,32.20
2019-05-07T04:14:43.385Z,33.10
2019-05-07T04:17:17.236Z,33.30
2019-05-07T04:19:44.136Z,32.78
2019-05-07T04:22:14.059Z,29.25
2019-05-07T04:24:53.738Z,32.00
2019-05-07T04:27:24.549Z,30.60
2019-05-07T04:29:53.923Z,30.97
2019-05-07T04:32:24.725Z,37.40
2019-05-07T04:35:07.447Z,34.75
2019-05-07T04:37:36.592Z,30.60
2019-05-07T04:40:06.565Z,33.58
2019-05-07T04:42:35.779Z,33.80
2019-05-07T04:45:08.737Z,31.23
2019-05-07T04:47:43.152Z,35.35
2019-05-07T04:50:13.898Z,32.33
2019-05-07T04:53:02.610Z,33.18
2019-05-07T04:55:33.197Z,35.08
2019-05-07T04:58:02.989Z,35.58
2019-05-07T05:00:33.743Z,34.33
2019-05-07T05:03:16.474Z,34.95
2019-05-07T05:08:52.163Z,30.97
2019-05-07T05:16:45.264Z,39.83
2019-05-07T05:19:34.033Z,39.83
2019-05-07T05:22:12.784Z,35.30
2019-05-07T05:24:44.622Z,34.53
2019-05-07T05:27:17.154Z,36.60
2019-05-07T05:29:46.592Z,37.98
2019-05-07T05:32:18.552Z,38.35
2019-05-07T05:34:47.812Z,36.28
2019-05-07T05:37:17.094Z,42.25
2019-05-07T05:39:46.398Z,40.63
2019-05-07T05:42:19.895Z,38.95
2019-05-07T05:44:52.442Z,35.85
2019-05-07T05:47:22.164Z,35.98
2019-05-07T05:49:53.404Z,36.38
2019-05-07T05:52:28.196Z,38.95
2019-05-07T05:56:43.617Z,37.20
2019-05-07T05:57:43.117Z,38.67
2019-05-07T06:18:20.864Z,37.08
2019-05-07T06:23:22.566Z,32.63
2019-05-07T06:25:52.472Z,38.80
2019-05-07T06:28:22.502Z,36.25
2019-05-07T06:30:52.729Z,38.05
2019-05-07T06:33:23.165Z,37.25
2019-05-07T06:35:52.612Z,35.25
2019-05-07T06:38:23.985Z,31.40
2019-05-07T06:41:03.635Z,32.95
2019-05-07T06:43:37.400Z,30.03
2019-05-07T06:46:07.286Z,35.75
2019-05-07T06:56:38.219Z,35.80
2019-05-07T06:59:09.076Z,33.90
2019-05-07T07:01:42.196Z,35.92
2019-05-07T07:04:15.076Z,30.80
2019-05-07T07:06:48.734Z,32.85
2019-05-07T07:09:32.948Z,37.17
2019-05-07T07:12:12.943Z,30.85
2019-05-07T07:14:42.527Z,32.58
2019-05-07T07:17:12.936Z,33.95
2019-05-07T07:22:12.953Z,31.23
2019-05-07T07:32:35.740Z,29.98
2019-05-07T07:56:48.874Z,34.95
2019-05-07T08:11:10.086Z,21.60
2019-05-07T08:13:52.897Z,24.15
2019-05-07T08:16:33.826Z,20.32
2019-05-07T08:21:42.031Z,22.75
2019-05-07T08:24:17.465Z,26.57
2019-05-07T08:26:54.866Z,25.10
2019-05-07T08:29:25.982Z,21.25
2019-05-07T08:32:02.390Z,24.72
2019-05-07T08:34:33.924Z,21.23
2019-05-07T08:37:04.980Z,17.25
2019-05-07T08:39:38.402Z,21.33
2019-05-07T08:42:12.302Z,17.05
2019-05-07T08:45:05.654Z,15.30
2019-05-07T08:47:42.537Z,16.42
2019-05-07T08:50:16.201Z,17.60
2019-05-07T08:52:46.727Z,17.55
2019-05-07T08:57:46.619Z,18.55
2019-05-07T09:00:23.702Z,16.87
2019-05-07T09:03:04.019Z,18.32
2019-05-07T09:05:35.928Z,19.37
2019-05-07T09:08:12.607Z,14.75
2019-05-07T09:10:44.792Z,16.85
2019-05-07T09:13:19.125Z,15.40
2019-05-07T09:15:52.852Z,15.48
2019-05-07T09:18:32.186Z,20.32
2019-05-07T09:21:02.743Z,17.48
2019-05-07T09:23:37.920Z,17.52
2019-05-07T09:26:09.900Z,14.98
2019-05-07T09:28:52.356Z,17.57
2019-05-07T09:31:26.243Z,15.10
2019-05-07T09:34:02.647Z,19.67
2019-05-07T09:36:34.987Z,16.93
2019-05-07T09:39:05.837Z,16.80
2019-05-07T09:41:35.351Z,17.57
2019-05-07T09:44:08.307Z,19.12
2019-05-07T09:49:22.282Z,21.33
2019-05-07T09:51:52.030Z,14.45
2019-05-07T09:54:23.095Z,12.65
2019-05-07T09:56:52.739Z,15.23
2019-05-07T10:01:58.273Z,16.00
2019-05-07T10:16:58.414Z,16.52
2019-05-07T10:19:28.033Z,15.55
2019-05-07T10:22:02.308Z,21.50
2019-05-07T11:14:32.149Z,16.85
2019-05-07T11:17:03.112Z,12.58
2019-05-07T11:19:32.512Z,14.47
2019-05-07T11:22:02.034Z,11.55
2019-05-07T11:24:32.102Z,11.53
2019-05-07T11:27:02.422Z,15.15
2019-05-07T11:29:33.072Z,11.70
2019-05-07T11:32:02.874Z,15.13
2019-05-07T11:34:33.678Z,11.73
2019-05-07T11:37:03.220Z,12.82
2019-05-07T11:45:27.322Z,11.68
2019-05-07T11:47:56.865Z,11.60
2019-05-07T11:50:32.852Z,11.80
2019-05-07T11:53:06.292Z,14.78
2019-05-07T11:58:28.194Z,11.93
2019-05-07T12:01:03.995Z,11.73
2019-05-07T12:03:33.595Z,16.10
2019-05-07T12:14:02.828Z,13.13
2019-05-07T12:16:32.951Z,12.18
2019-05-07T12:58:56.918Z,16.07
2019-05-07T13:01:36.671Z,14.75
2019-05-07T13:04:07.992Z,15.68
2019-05-07T13:09:16.342Z,14.60
2019-05-07T14:17:27.009Z,13.60
2019-05-07T14:19:56.271Z,12.18
2019-05-07T14:22:25.467Z,13.72
2019-05-07T14:24:54.712Z,11.55
2019-05-07T14:27:23.964Z,9.75
2019-05-07T14:29:53.152Z,9.43
2019-05-07T14:32:29.944Z,11.38
2019-05-07T14:35:06.493Z,14.63
2019-05-07T14:37:41.858Z,12.53
2019-05-07T14:40:12.892Z,10.03
2019-05-07T14:42:46.451Z,8.70
2019-05-07T14:45:15.726Z,11.73
2019-05-07T14:47:45.111Z,12.47
2019-05-07T14:50:14.412Z,11.80
2019-05-07T14:52:43.916Z,9.55
2019-05-07T14:55:13.145Z,13.60
2019-05-07T14:57:42.584Z,13.22
2019-05-07T15:00:12.382Z,14.58
2019-05-07T15:02:42.113Z,11.68
2019-05-07T15:05:12.157Z,12.85
2019-05-07T15:07:41.592Z,11.53
2019-05-07T15:10:10.951Z,13.10
2019-05-07T15:12:40.175Z,13.85
2019-05-07T15:15:09.623Z,12.30
2019-05-07T15:17:41.950Z,11.40
2019-05-07T15:20:11.243Z,12.95
2019-05-07T15:22:52.695Z,12.60
2019-05-07T15:25:22.674Z,13.30
2019-05-07T15:27:52.737Z,11.65
2019-05-07T15:30:23.170Z,12.73
2019-05-07T15:32:52.395Z,11.65
2019-05-07T15:35:21.622Z,14.13
2019-05-07T15:37:51.798Z,13.40
2019-05-07T15:40:22.534Z,14.53
2019-05-07T15:42:52.482Z,12.25
2019-05-07T15:45:21.871Z,16.85
2019-05-07T15:47:52.743Z,10.68
2019-05-07T15:50:23.558Z,18.77
2019-05-07T15:52:58.780Z,13.75
2019-05-07T15:55:28.127Z,15.38
2019-05-07T15:57:58.089Z,14.40
2019-05-07T16:00:33.523Z,14.10
2019-05-07T16:03:12.078Z,11.97
2019-05-07T16:05:42.464Z,15.80
2019-05-07T16:08:13.724Z,12.10
2019-05-07T16:10:42.924Z,12.33
2019-05-07T16:13:13.882Z,13.70
2019-05-07T16:15:43.147Z,14.95
2019-05-07T16:18:23.854Z,12.43
2019-05-07T16:20:53.313Z,12.15
2019-05-07T16:23:22.534Z,17.10
2019-05-07T16:25:52.782Z,10.58
2019-05-07T16:28:22.086Z,14.73
2019-05-07T16:30:52.161Z,12.28
2019-05-07T16:33:21.428Z,17.62
2019-05-07T16:35:50.604Z,11.83
2019-05-07T16:38:21.990Z,12.68
2019-05-07T16:40:52.184Z,10.78
2019-05-07T16:43:22.366Z,10.20
2019-05-07T16:45:51.832Z,17.05
2019-05-07T16:48:23.085Z,12.30
2019-05-07T16:50:52.352Z,10.80
2019-05-07T16:53:29.322Z,17.33
2019-05-07T16:55:52.452Z,17.15
2019-05-07T16:58:26.436Z,15.93
2019-05-07T17:01:03.240Z,11.70
2019-05-07T17:03:42.590Z,11.97
2019-05-07T17:06:12.449Z,12.40
2019-05-07T17:11:22.645Z,16.42
2019-05-07T17:13:52.042Z,15.95
2019-05-07T17:16:22.841Z,14.13
2019-05-07T17:18:52.124Z,16.62
2019-05-07T17:21:21.868Z,14.03
2019-05-07T17:23:51.929Z,13.80
2019-05-07T17:26:23.043Z,15.55
2019-05-07T17:28:52.211Z,15.18
2019-05-07T17:31:22.931Z,13.35
2019-05-07T17:33:52.286Z,14.00
2019-05-07T17:36:22.452Z,15.70
2019-05-07T17:38:52.006Z,12.80
2019-05-07T17:41:26.535Z,14.40
2019-05-07T17:43:52.272Z,13.88
2019-05-07T17:46:21.825Z,14.07
2019-05-07T17:48:52.360Z,15.40
2019-05-07T17:54:07.649Z,15.85
2019-05-07T17:56:37.622Z,20.88
2019-05-07T17:59:06.800Z,15.45
2019-05-07T18:01:50.029Z,28.35
2019-05-07T18:04:17.852Z,16.10
2019-05-07T18:06:47.147Z,13.03
2019-05-07T18:09:16.474Z,16.07
2019-05-07T18:11:45.726Z,14.90
2019-05-07T18:14:14.919Z,16.48
2019-05-07T18:16:57.849Z,16.20
2019-05-07T18:19:28.668Z,13.78
2019-05-07T18:21:57.835Z,17.00
2019-05-07T18:24:27.053Z,15.63
2019-05-07T18:26:56.288Z,16.70
2019-05-07T18:29:25.480Z,15.90
2019-05-07T18:31:59.337Z,16.00
2019-05-07T18:34:28.602Z,18.02
2019-05-07T18:36:58.361Z,17.07
2019-05-07T18:39:27.537Z,16.30
2019-05-07T18:41:56.729Z,15.75
2019-05-07T18:44:25.921Z,21.52
2019-05-07T18:46:55.120Z,16.20
2019-05-07T18:49:24.316Z,18.67
2019-05-07T18:51:53.475Z,15.58
2019-05-07T18:54:30.450Z,16.45
2019-05-07T18:56:53.850Z,14.83
2019-05-07T18:59:24.797Z,16.12
2019-05-07T19:01:54.074Z,14.23
2019-05-07T19:04:23.280Z,15.55
2019-05-07T19:06:52.511Z,18.50
2019-05-07T19:09:22.528Z,18.48
2019-05-07T19:11:52.396Z,18.67
2019-05-07T19:14:22.640Z,20.25
2019-05-07T19:16:52.677Z,19.27
2019-05-07T19:19:22.417Z,24.72
2019-05-07T19:21:53.050Z,32.17
2019-05-07T19:24:26.011Z,27.32
2019-05-07T19:26:53.431Z,22.17
2019-05-07T19:29:23.369Z,19.65
2019-05-07T19:31:52.883Z,20.10
2019-05-07T19:34:22.402Z,15.70
2019-05-07T19:36:52.161Z,19.20
2019-05-07T19:39:23.387Z,19.32
2019-05-07T19:41:52.732Z,18.25
2019-05-07T19:44:21.953Z,21.50
2019-05-07T19:46:52.495Z,19.20
2019-05-07T19:51:52.309Z,19.23
2019-05-07T19:54:22.788Z,16.67
2019-05-07T19:56:52.134Z,26.37
2019-05-07T19:59:22.266Z,22.73
2019-05-07T20:01:53.799Z,17.82
2019-05-07T20:04:24.779Z,21.05
2019-05-07T20:06:53.983Z,24.12
2019-05-07T20:09:24.823Z,18.92
2019-05-07T20:11:54.057Z,20.05
2019-05-07T20:14:23.299Z,22.30
2019-05-07T20:16:53.182Z,20.70
2019-05-07T20:19:23.070Z,18.40
2019-05-07T20:21:52.497Z,20.72
2019-05-07T20:24:22.088Z,18.48
2019-05-07T20:26:52.684Z,19.93
2019-05-07T20:29:22.918Z,19.70
2019-05-07T20:31:53.254Z,20.70
2019-05-07T20:34:22.728Z,20.88
2019-05-07T20:36:51.967Z,19.48
2019-05-07T20:39:23.202Z,24.50
2019-05-07T20:41:52.679Z,22.50
2019-05-07T20:44:22.016Z,23.98
2019-05-07T20:46:53.420Z,18.37
2019-05-07T20:49:22.598Z,19.20
2019-05-07T20:51:52.607Z,20.67
2019-05-07T20:54:23.554Z,17.85
2019-05-07T20:56:57.150Z,23.00
2019-05-07T20:59:26.301Z,20.40
2019-05-07T21:01:55.691Z,19.73
2019-05-07T21:04:24.908Z,18.85
2019-05-07T21:06:54.105Z,18.45
2019-05-07T21:09:23.281Z,23.90
2019-05-07T21:11:52.565Z,16.85
2019-05-07T21:14:22.824Z,20.62
2019-05-07T21:16:52.168Z,23.50
2019-05-07T21:19:22.314Z,24.32
2019-05-07T21:21:51.683Z,24.05
2019-05-07T21:24:22.554Z,19.50
2019-05-07T21:26:53.097Z,21.33
2019-05-07T21:31:52.460Z,20.72
2019-05-07T21:34:22.984Z,20.27
2019-05-07T21:36:52.506Z,28.23
2019-05-07T21:39:22.361Z,20.12
2019-05-07T21:41:52.028Z,20.62
2019-05-07T21:44:22.731Z,18.35
2019-05-07T21:46:52.270Z,17.05
2019-05-07T21:49:22.840Z,21.77
2019-05-07T21:54:32.984Z,19.98
2019-05-07T21:57:03.840Z,22.65
2019-05-07T21:59:35.746Z,21.37
2019-05-07T22:02:21.932Z,20.43
2019-05-07T22:04:52.770Z,20.32
2019-05-07T22:07:22.777Z,18.67
2019-05-07T22:09:52.350Z,22.42
2019-05-07T22:12:23.176Z,22.25
2019-05-07T22:14:52.652Z,21.80
2019-05-07T22:17:22.037Z,21.33
2019-05-07T22:19:52.508Z,20.85
2019-05-07T22:24:53.102Z,21.23
2019-05-07T22:27:22.457Z,21.97
2019-05-07T22:29:52.721Z,21.05
2019-05-07T22:32:38.747Z,22.55
2019-05-07T22:35:18.703Z,19.35
2019-05-07T22:37:48.021Z,18.12
2019-05-07T22:40:17.199Z,23.65
2019-05-07T22:42:46.382Z,19.90
2019-05-07T22:45:15.609Z,20.55
2019-05-07T22:47:44.939Z,20.52
2019-05-07T22:50:14.121Z,20.20
2019-05-07T22:52:43.358Z,18.15
2019-05-07T22:55:14.172Z,25.23
2019-05-07T22:57:52.536Z,25.32
2019-05-07T23:00:23.527Z,20.20
2019-05-07T23:02:53.916Z,20.08
2019-05-07T23:05:23.269Z,23.70
2019-05-07T23:07:52.777Z,20.37
2019-05-07T23:10:22.611Z,22.90
2019-05-07T23:12:51.868Z,20.90
2019-05-07T23:15:22.616Z,24.25
2019-05-07T23:17:51.883Z,21.40
2019-05-07T23:20:24.145Z,20.52
2019-05-07T23:22:52.102Z,20.23
2019-05-07T23:25:24.262Z,20.92
2019-05-07T23:27:52.577Z,21.57
2019-05-07T23:30:22.411Z,21.33
2019-05-07T23:32:52.831Z,19.65
2019-05-07T23:35:22.295Z,23.65
2019-05-07T23:37:52.952Z,21.60
2019-05-07T23:40:32.461Z,21.77
2019-05-07T23:43:03.522Z,19.57
2019-05-07T23:45:32.779Z,27.52
2019-05-07T23:48:02.777Z,23.07
2019-05-07T23:50:32.434Z,22.42
2019-05-07T23:53:02.244Z,19.95
2019-05-07T23:55:31.907Z,21.15
2019-05-07T23:58:03.071Z,17.27
